Simon Davis

Chefscout - Oxford United
27 Jan 2028
Donnerstag
Verarbeitung

Persönlichkeit

Anpassungsfähigkeit (3) Ehrgeiz (16) Kontroverse (10) Loyalität (1) Druck (9) Professionalität (5) Fairness (2) Temperament (16)

Profil

Trainerstil Demokratisch
Lizenz Nationale B
Entschlossenheit 4
Menschenführung 12
Motivation 5
Disziplin 9
Arbeitszufriedenheit
100%
Ermüdung
0%
Rolle Chefscout
Gehalt 18.6K p/W
Vertrag 14.03.2028

Leistung

Verhalten Gut
Trainingseffektivität
49%
Spielerentwicklung
40%
Verletzungsprävention
35%
Taktische Umsetzung
50%

Letzte Ereignisse

Vertragsverhandlung begonnen jetzt
Nahm an einer Scouting-Besprechung teil jetzt
Empfahl ein Transferziel jetzt
Empfahl ein Transferziel jetzt
Nimmt an Fortbildung teil 7T her
Vertragsverhandlung begonnen 7T her
Vertragsverhandlung begonnen 7T her
Vertragsverhandlung begonnen 7T her

Aktuell beobachtet

107
Spieler Verein Status Fähigkeit Vertrauen Beobachtet Zuletzt beobachtet Letzte Stimme
Deji Oshilaja Mansfield Town Aktiv 107 / 98 69% 1 17.01.2028 Befürworten
Christian Walton Ipswich Town Verloren 143 / 140 40% 1 06.01.2028 -
Nicolas Schmid Portsmouth Verloren 134 / 131 40% 1 06.01.2028 -
Alex Bass Peterborough United Verloren 128 / 112 40% 1 06.01.2028 -
Ethan Wheatley Manchester United Verloren 109 / 121 69% 1 01.01.2028 Befürworten
Gopolang Taunyane Ajax Cape Town Aktiv 101 / 113 40% 1 24.08.2027 -
Kwaku Agyabeng Sporting Kansas City Aktiv 97 / 96 40% 1 24.08.2027 -
Onuorah Onyedika Kun Khalifat Aktiv 69 / 76 40% 1 24.08.2027 -
Gady Beyuku Modena Aktiv 110 / 125 40% 1 16.08.2027 -
Vladislav Cherny Accrington Stanley Aktiv 105 / 104 69% 1 09.08.2027 Befürworten
Pau Casadesús Granada Aktiv 116 / 115 40% 3 08.08.2027 -
Josh Neufville Bradford City Aktiv 111 / 113 40% 1 08.08.2027 -
Fabián Correa Barranquilla Aktiv 80 / 98 40% 2 06.08.2027 -
Eric Klein FC Cincinnati Aktiv 95 / 107 40% 1 06.08.2027 -
Musa Danjuma Hatayspor Aktiv 89 / 96 40% 1 06.08.2027 -
Albie Morgan Blackpool Aktiv 108 / 110 40% 3 01.08.2027 -
Ethan Bristow Tranmere Rovers Aktiv 96 / 97 40% 2 31.07.2027 -
Nicolás Paz San Martín SJ Aktiv 125 / 129 40% 2 31.07.2027 -
Ikouwem Utin Shooting Stars Aktiv 85 / 78 40% 2 30.07.2027 -
Romano Floriani Mussolini Avellino Aktiv 122 / 130 40% 2 29.07.2027 -
Christopher Richards Katsina United Aktiv 91 / 104 40% 2 26.07.2027 -
Álex Lebarbier Real Sociedad Aktiv 106 / 107 40% 1 25.07.2027 -
Yasin Özcan Aston Villa Aktiv 105 / 119 40% 1 25.07.2027 -
Jack MacKenzie Plymouth Argyle Aktiv 112 / 113 40% 2 19.07.2027 -
Siphesihle Sithole Inter Allies Aktiv 89 / 98 40% 1 19.07.2027 -
Pedro Manoel Tammeka Aktiv 90 / 92 40% 1 19.07.2027 -
Alfie Chang Walsall Aktiv 104 / 102 40% 2 18.07.2027 -
George McEachran Doncaster Rovers Aktiv 109 / 117 40% 4 12.07.2027 -
Federico Gattoni Ascoli Aktiv 138 / 132 40% 2 12.07.2027 -
Gustavo Sliema Wanderers Aktiv 101 / 92 40% 2 11.07.2027 -
Jamie Robson Oldham Athletic Aktiv 101 / 106 40% 1 10.07.2027 -
Charlie Barker Crawley Town Aktiv 104 / 105 40% 4 08.07.2027 -
Ibrahim Sabiu Bendel Insurance Aktiv 81 / 87 40% 1 08.07.2027 -
Haji Mnoga Salford City Aktiv 106 / 106 40% 1 06.07.2027 -
Kevin Palacios Santos Laguna Aktiv 109 / 112 40% 1 01.07.2027 -
Danny Collinge Barnet Aktiv 100 / 110 40% 2 30.06.2027 -
Juan David Obando Dinamo Barnaul Aktiv 96 / 88 40% 2 27.06.2027 -
Nikola Tavares Barnet Aktiv 110 / 104 40% 1 27.06.2027 -
Pedro Borges Exeter City Aktiv 89 / 99 40% 1 27.06.2027 -
Nupe Godstime Bayelsa United Aktiv 94 / 88 40% 1 27.06.2027 -
Kyle Jurgens Maritzburg United Aktiv 120 / 107 40% 4 24.06.2027 -
Steve Seddon AFC Wimbledon Aktiv 113 / 109 40% 2 24.06.2027 -
Dan Happe AFC Wimbledon Aktiv 109 / 99 40% 3 21.06.2027 -
Josh Honohan Lincoln City Aktiv 105 / 107 40% 1 16.06.2027 -
Hassan Beja AFC Leopards Aktiv 75 / 77 40% 1 16.06.2027 -
Mads Abrahamsen Saturn Aktiv 90 / 93 40% 1 16.06.2027 -
Elie N'Gatta Sochaux Aktiv 88 / 105 40% 1 16.06.2027 -
Alan Coria Villarreal Aktiv 109 / 118 40% 1 15.06.2027 -
Paulo Cardoso Sporting CP Aktiv 96 / 98 40% 1 03.06.2027 -
Brooklyn Poggenpoel Maritzburg United Aktiv 107 / 108 40% 4 31.01.2027 -
Luther Lorch Free State Stars Aktiv 134 / 108 40% 1 30.01.2027 -
Dean Tau Platinum Stars Aktiv 84 / 94 40% 1 29.01.2027 -
Bongani Mothiba Free State Stars Aktiv 113 / 116 40% 2 27.01.2027 -
Mpho Mathebula Bloemfontein Celtic Aktiv 108 / 89 40% 1 27.01.2027 -
Ryan Wintle Milton Keynes Dons Aktiv 117 / 110 40% 2 25.01.2027 -
Bali Mumba Huddersfield Town Aktiv 120 / 125 40% 1 25.01.2027 -
Lander Astiazarán Real Sociedad Aktiv 99 / 110 40% 1 20.01.2027 -
Martim Cunha Porto Aktiv 94 / 107 40% 1 20.01.2027 -
Kyle John Port Vale Aktiv 107 / 108 40% 2 19.01.2027 -
Jay McGrath Doncaster Rovers Aktiv 101 / 106 40% 2 19.01.2027 -
Rushwin Dortley Kaizer Chiefs Aktiv 125 / 105 40% 2 16.01.2027 -
Ignacio Perruzzi San Lorenzo Aktiv 117 / 131 40% 2 15.01.2027 -
Goodman Mosele Chippa United Aktiv 120 / 110 40% 1 15.01.2027 -
Denys Smetana Inhulets Aktiv 91 / 110 40% 1 15.01.2027 -
Bradley Cross Kaizer Chiefs Aktiv 94 / 120 40% 1 11.01.2027 -
Ryan Trevitt AFC Wimbledon Aktiv 117 / 114 40% 1 10.01.2027 -
Kevin Horváth Paksi Aktiv 86 / 103 40% 1 10.01.2027 -
Noel Buck San Jose Earthquakes Aktiv 113 / 125 40% 1 10.01.2027 -
Morgan Kekana Free State Stars Aktiv 104 / 94 40% 1 09.01.2027 -
Emam Ashour Al Ahly Aktiv 151 / 148 40% 1 05.01.2027 -
Fezile Gcaba Maritzburg United Aktiv 112 / 110 40% 1 05.01.2027 -
Happy Mashiane Free State Stars Aktiv 96 / 108 40% 1 04.01.2027 -
Morgan Erasmus Ajax Cape Town Aktiv 103 / 116 40% 1 03.01.2027 -
Archie Collins Peterborough United Aktiv 118 / 122 40% 1 02.01.2027 -
David Ayala Inter Miami CF Aktiv 122 / 118 40% 1 02.01.2027 -
Mbekezeli Mbokazi Chicago Fire Aktiv 116 / 118 40% 3 29.08.2026 -
Marco Oroná Antofagasta Aktiv 88 / 95 40% 1 29.08.2026 -
Kaick FC Dallas Aktiv 93 / 103 40% 1 29.08.2026 -
Edwin Asamoah Berekum Chelsea Aktiv 74 / 76 40% 1 28.08.2026 -
Nikita Stoinov Dinamo Bucharest Aktiv 127 / 137 40% 2 27.08.2026 -
Tyler Fredricson Leganés Aktiv 107 / 110 40% 1 27.08.2026 -
Elías Báez Atlanta United FC Aktiv 121 / 127 40% 2 26.08.2026 -
Santiago Fernández Talleres Aktiv 116 / 117 40% 1 26.08.2026 -
Aiden Hezarkhani Real Salt Lake Aktiv 87 / 87 40% 1 22.08.2026 -
Mauricio Amaro Atlanta United FC Aktiv 119 / 134 40% 2 21.08.2026 -
Suleiman Idris Kano Pillars Aktiv 80 / 86 40% 1 20.08.2026 -
Davinchi Getafe Aktiv 101 / 126 40% 1 20.08.2026 -
Lucas Noubi Deportivo La Coruña Aktiv 108 / 107 40% 1 20.08.2026 -
Juan Cruz Cortazzo Gimnasia La Plata Aktiv 105 / 110 40% 1 18.08.2026 -
Morrison Agyemang Charlotte Football Club Aktiv 111 / 115 40% 2 16.08.2026 -
Frankie Westfield Philadelphia Union Aktiv 106 / 103 40% 1 14.08.2026 -
Marvelous Freedom Ikorodu City Aktiv 88 / 108 40% 1 14.08.2026 -
Chris Applewhite Nashville SC Aktiv 83 / 92 40% 1 13.08.2026 -
Philippe Ndinga Philadelphia Union Aktiv 108 / 124 40% 1 13.08.2026 -
Cielo Tschantret Sporting Kansas City Aktiv 86 / 91 40% 1 10.08.2026 -
Clinton Jephta Niger Tornadoes Aktiv 74 / 85 40% 1 09.08.2026 -
Reed Baker-Whiting Nashville SC Aktiv 106 / 108 40% 1 09.08.2026 -
Emmanuel Mathias Ikorodu City Aktiv 81 / 87 40% 1 09.08.2026 -
Brian Romero Charlotte Football Club Aktiv 79 / 99 40% 1 06.08.2026 -
Darren Yapi Colorado Rapids Aktiv 96 / 116 40% 1 06.08.2026 -
Lazar Stefanovic Toronto FC Aktiv 95 / 114 40% 1 05.08.2026 -
David Vazquez San Diego Football Club Aktiv 100 / 107 40% 1 05.08.2026 -
Yahaya Ibrahim Kwara United Aktiv 93 / 79 40% 1 05.08.2026 -
Henadii Synchuk CF Montreal Aktiv 91 / 103 40% 2 04.08.2026 -
Sergio Oregel Chicago Fire Aktiv 109 / 116 40% 1 04.08.2026 -
Emmanuel Akpan Bendel Insurance Aktiv 91 / 78 40% 1 03.08.2026 -
Drew Baiera New York City Aktiv 96 / 90 40% 1 01.08.2026 -